createdAt,value
2022-10-01T00:00:54.667Z,96.20
2022-10-01T00:03:23.448Z,96.10
2022-10-01T00:06:12.430Z,95.90
2022-10-01T00:08:40.969Z,96.00
2022-10-01T00:11:13.012Z,95.90
2022-10-01T00:13:40.993Z,95.80
2022-10-01T00:16:10.721Z,95.70
2022-10-01T00:18:41.855Z,96.00
2022-10-01T00:21:10.216Z,95.80
2022-10-01T00:23:37.092Z,96.30
2022-10-01T00:26:11.184Z,96.20
2022-10-01T00:28:37.847Z,96.20
2022-10-01T00:31:07.041Z,96.20
2022-10-01T00:33:33.970Z,96.10
2022-10-01T00:36:00.752Z,96.30
2022-10-01T00:38:29.090Z,96.20
2022-10-01T00:40:55.831Z,96.20
2022-10-01T00:43:28.454Z,96.30
2022-10-01T00:46:24.025Z,96.40
2022-10-01T00:49:00.959Z,96.40
2022-10-01T00:51:33.198Z,96.50
2022-10-01T00:54:10.700Z,96.90
2022-10-01T00:56:38.127Z,97.40
2022-10-01T00:59:06.102Z,97.40
2022-10-01T01:01:37.240Z,98.40
2022-10-01T01:04:04.254Z,98.80
2022-10-01T01:06:31.120Z,99.90
2022-10-01T01:08:57.731Z,99.90
2022-10-01T01:11:58.217Z,99.90
2022-10-01T01:15:09.830Z,99.90
2022-10-01T01:17:54.671Z,99.90
2022-10-01T01:20:29.230Z,99.90
2022-10-01T01:23:18.831Z,99.90
2022-10-01T01:25:59.080Z,99.90
2022-10-01T01:28:37.742Z,99.90
2022-10-01T01:31:14.388Z,99.90
2022-10-01T01:33:44.205Z,99.90
2022-10-01T01:36:27.436Z,99.90
2022-10-01T01:39:00.085Z,99.90
2022-10-01T01:41:31.251Z,99.90
2022-10-01T01:44:02.437Z,99.90
2022-10-01T01:46:34.821Z,99.90
2022-10-01T01:49:04.150Z,99.90
2022-10-01T01:51:45.704Z,99.90
2022-10-01T01:54:12.523Z,99.90
2022-10-01T01:56:39.307Z,99.90
2022-10-01T01:59:05.990Z,99.90
2022-10-01T02:01:43.871Z,99.90
2022-10-01T02:04:25.235Z,99.90
2022-10-01T02:07:19.688Z,99.90
2022-10-01T02:09:52.839Z,99.90
2022-10-01T02:12:26.487Z,99.90
2022-10-01T02:14:58.836Z,99.90
2022-10-01T02:17:40.363Z,99.90
2022-10-01T02:20:30.816Z,99.90
2022-10-01T02:23:03.515Z,99.90
2022-10-01T02:25:37.499Z,99.90
2022-10-01T02:28:09.477Z,99.90
2022-10-01T02:30:38.008Z,99.90
2022-10-01T02:33:07.209Z,99.90
2022-10-01T02:35:36.379Z,99.90
2022-10-01T02:38:06.198Z,99.90
2022-10-01T02:40:36.875Z,99.90
2022-10-01T02:43:15.564Z,99.90
2022-10-01T02:45:46.584Z,99.90
2022-10-01T02:48:17.394Z,99.90
2022-10-01T02:51:02.797Z,99.90
2022-10-01T02:53:37.877Z,99.90
2022-10-01T02:56:06.352Z,99.90
2022-10-01T02:58:32.953Z,99.90
2022-10-01T03:00:59.569Z,99.90
2022-10-01T03:03:27.224Z,99.90
2022-10-01T03:05:53.863Z,99.90
2022-10-01T03:08:20.483Z,99.90
2022-10-01T03:10:47.305Z,99.90
2022-10-01T03:13:13.913Z,99.90
2022-10-01T03:15:40.533Z,99.90
2022-10-01T03:18:07.193Z,99.90
2022-10-01T03:20:33.792Z,99.90
2022-10-01T03:23:00.375Z,99.90
2022-10-01T03:25:26.959Z,99.90
2022-10-01T03:27:53.710Z,99.90
2022-10-01T03:30:20.809Z,99.90
2022-10-01T03:32:47.588Z,99.90
2022-10-01T03:35:14.245Z,99.90
2022-10-01T03:37:40.889Z,99.90
2022-10-01T03:40:08.056Z,99.90
2022-10-01T03:42:34.741Z,99.90
2022-10-01T03:45:01.359Z,99.90
2022-10-01T03:47:27.954Z,99.90
2022-10-01T03:49:54.757Z,99.90
2022-10-01T03:52:21.361Z,99.90
2022-10-01T03:54:47.941Z,99.90
2022-10-01T03:57:14.593Z,99.90
2022-10-01T03:59:42.059Z,99.90
2022-10-01T04:02:09.245Z,99.90
2022-10-01T04:04:36.237Z,99.90
2022-10-01T04:07:02.901Z,99.90
2022-10-01T04:09:29.540Z,99.90
2022-10-01T04:11:56.204Z,99.90
2022-10-01T04:14:22.787Z,99.90
2022-10-01T04:16:52.179Z,99.90
2022-10-01T04:19:19.461Z,99.90
2022-10-01T04:21:46.142Z,99.90
2022-10-01T04:24:12.745Z,99.90
2022-10-01T04:26:39.412Z,99.90
2022-10-01T04:29:06.123Z,99.90
2022-10-01T04:31:35.281Z,99.90
2022-10-01T04:34:02.944Z,99.90
2022-10-01T04:36:29.593Z,99.90
2022-10-01T04:39:00.772Z,99.90
2022-10-01T04:41:30.664Z,99.90
2022-10-01T04:43:59.584Z,99.90
2022-10-01T04:46:26.400Z,99.90
2022-10-01T04:48:53.018Z,99.90
2022-10-01T04:51:19.649Z,99.90
2022-10-01T04:53:46.216Z,99.90
2022-10-01T04:56:12.798Z,99.90
2022-10-01T04:58:40.120Z,99.90
2022-10-01T05:01:07.177Z,99.90
2022-10-01T05:03:34.306Z,99.90
2022-10-01T05:06:00.884Z,99.90
2022-10-01T05:08:27.516Z,99.90
2022-10-01T05:10:54.153Z,99.90
2022-10-01T05:13:20.788Z,99.90
2022-10-01T05:15:50.592Z,99.90
2022-10-01T05:18:17.180Z,99.90
2022-10-01T05:20:43.792Z,99.90
2022-10-01T05:23:10.373Z,99.90
2022-10-01T05:25:36.982Z,99.90
2022-10-01T05:28:05.415Z,99.90
2022-10-01T05:30:33.193Z,99.90
2022-10-01T05:33:03.275Z,99.90
2022-10-01T05:35:30.388Z,99.90
2022-10-01T05:38:02.714Z,99.90
2022-10-01T05:40:30.731Z,99.90
2022-10-01T05:42:59.458Z,99.90
2022-10-01T05:45:30.667Z,99.90
2022-10-01T05:47:58.480Z,99.90
2022-10-01T05:50:25.768Z,99.90
2022-10-01T05:52:54.548Z,99.90
2022-10-01T05:55:22.613Z,99.90
2022-10-01T05:58:00.221Z,99.90
2022-10-01T06:00:30.352Z,99.90
2022-10-01T06:02:58.556Z,99.90
2022-10-01T06:05:26.043Z,99.90
2022-10-01T06:07:53.448Z,99.90
2022-10-01T06:10:21.349Z,99.90
2022-10-01T06:12:48.504Z,99.90
2022-10-01T06:15:15.845Z,99.90
2022-10-01T06:17:45.765Z,99.90
2022-10-01T06:20:19.031Z,99.90
2022-10-01T06:22:53.821Z,99.90
2022-10-01T06:25:20.722Z,99.90
2022-10-01T06:27:56.134Z,99.90
2022-10-01T06:30:23.092Z,99.90
2022-10-01T06:32:49.673Z,99.90
2022-10-01T06:35:16.267Z,99.90
2022-10-01T06:37:42.835Z,99.90
2022-10-01T06:40:09.885Z,99.90
2022-10-01T06:42:36.472Z,99.90
2022-10-01T06:45:03.408Z,99.90
2022-10-01T06:47:30.087Z,99.90
2022-10-01T06:49:59.277Z,99.90
2022-10-01T06:52:44.375Z,99.90
2022-10-01T06:55:15.716Z,99.90
2022-10-01T06:57:43.303Z,99.90
2022-10-01T07:00:10.989Z,99.90
2022-10-01T07:02:38.164Z,99.90
2022-10-01T07:05:05.550Z,99.90
2022-10-01T07:07:35.194Z,99.90
2022-10-01T07:10:03.571Z,99.90
2022-10-01T07:12:30.229Z,99.90
2022-10-01T07:14:56.906Z,99.90
2022-10-01T07:17:23.567Z,99.90
2022-10-01T07:19:50.221Z,99.90
2022-10-01T07:22:19.187Z,99.90
2022-10-01T07:24:46.693Z,99.90
2022-10-01T07:27:14.418Z,99.90
2022-10-01T07:29:41.772Z,99.90
2022-10-01T07:32:10.273Z,99.90
2022-10-01T07:34:40.133Z,99.90
2022-10-01T07:37:07.152Z,99.90
2022-10-01T07:39:33.748Z,99.90
2022-10-01T07:42:01.017Z,99.90
2022-10-01T07:44:29.254Z,99.90
2022-10-01T07:46:56.700Z,99.90
2022-10-01T07:49:25.048Z,99.90
2022-10-01T07:51:54.260Z,99.90
2022-10-01T07:54:21.880Z,99.90
2022-10-01T07:56:51.821Z,99.90
2022-10-01T07:59:18.869Z,99.90
2022-10-01T08:01:49.616Z,99.90
2022-10-01T08:04:35.273Z,99.90
2022-10-01T08:07:02.066Z,99.90
2022-10-01T08:09:28.695Z,99.90
2022-10-01T08:11:55.329Z,99.90
2022-10-01T08:14:21.908Z,99.90
2022-10-01T08:16:48.977Z,99.90
2022-10-01T08:19:15.804Z,99.90
2022-10-01T08:21:42.885Z,99.90
2022-10-01T08:24:09.628Z,99.90
2022-10-01T08:26:36.326Z,99.90
2022-10-01T08:29:03.347Z,99.90
2022-10-01T08:31:30.104Z,99.90
2022-10-01T08:33:57.447Z,99.90
2022-10-01T08:36:24.154Z,99.90
2022-10-01T08:38:50.762Z,99.90
2022-10-01T08:41:40.843Z,99.90
2022-10-01T08:44:09.394Z,99.90
2022-10-01T08:46:37.041Z,99.90
2022-10-01T08:49:18.717Z,99.90
2022-10-01T08:51:52.114Z,99.90
2022-10-01T08:54:28.798Z,99.90
2022-10-01T08:56:59.443Z,99.90
2022-10-01T08:59:38.361Z,99.90
2022-10-01T09:02:28.612Z,99.90
2022-10-01T09:05:01.596Z,99.90
2022-10-01T09:07:58.911Z,99.90
2022-10-01T09:10:44.104Z,99.90
2022-10-01T09:13:43.325Z,99.90
2022-10-01T09:16:33.694Z,99.90
2022-10-01T09:19:15.220Z,99.90
2022-10-01T09:21:55.533Z,99.90
2022-10-01T09:24:44.785Z,99.90
2022-10-01T09:27:17.843Z,99.90
2022-10-01T09:29:55.009Z,99.90
2022-10-01T09:32:30.951Z,99.90
2022-10-01T09:35:04.437Z,99.90
2022-10-01T09:37:54.847Z,99.90
2022-10-01T09:40:41.602Z,99.90
2022-10-01T09:43:11.299Z,99.90
2022-10-01T09:45:38.914Z,99.90
2022-10-01T09:48:25.304Z,99.90
2022-10-01T09:50:58.870Z,99.90
2022-10-01T09:53:35.168Z,99.90
2022-10-01T09:56:28.892Z,99.90
2022-10-01T09:59:00.296Z,99.90
2022-10-01T10:01:51.601Z,99.90
2022-10-01T10:04:20.853Z,99.90
2022-10-01T10:06:47.963Z,99.90
2022-10-01T10:09:23.077Z,99.90
2022-10-01T10:11:49.769Z,99.90
2022-10-01T10:14:20.875Z,99.90
2022-10-01T10:16:48.652Z,99.90
2022-10-01T10:19:27.182Z,99.90
2022-10-01T10:21:57.338Z,99.90
2022-10-01T10:24:32.475Z,99.90
2022-10-01T10:27:00.990Z,99.90
2022-10-01T10:29:35.991Z,99.90
2022-10-01T10:32:17.708Z,99.90
2022-10-01T10:34:48.681Z,99.90
2022-10-01T10:37:26.908Z,99.90
2022-10-01T10:39:54.157Z,99.90
2022-10-01T10:42:22.913Z,99.90
2022-10-01T10:44:51.458Z,99.90
2022-10-01T10:47:20.523Z,99.90
2022-10-01T10:49:55.867Z,99.90
2022-10-01T10:52:29.773Z,99.90
2022-10-01T10:54:58.660Z,99.90
2022-10-01T10:57:30.623Z,99.90
2022-10-01T11:00:01.312Z,99.90
2022-10-01T11:02:30.377Z,99.90
2022-10-01T11:05:17.106Z,99.90
2022-10-01T11:07:45.976Z,99.90
2022-10-01T11:10:24.537Z,99.90
2022-10-01T11:13:25.111Z,99.90
2022-10-01T11:15:57.581Z,99.90
2022-10-01T11:18:39.627Z,99.90
2022-10-01T11:21:21.179Z,99.90
2022-10-01T11:24:19.330Z,99.90
2022-10-01T11:27:01.395Z,99.90
2022-10-01T11:29:49.221Z,99.90
2022-10-01T11:32:34.845Z,99.90
2022-10-01T11:35:29.980Z,99.90
2022-10-01T11:38:06.497Z,99.90
2022-10-01T11:40:45.072Z,99.90
2022-10-01T11:43:32.843Z,99.90
2022-10-01T11:46:08.177Z,99.90
2022-10-01T11:48:52.238Z,99.90
2022-10-01T11:51:26.820Z,99.90
2022-10-01T11:54:01.666Z,99.90
2022-10-01T11:56:50.440Z,99.90
2022-10-01T11:59:36.645Z,99.90
2022-10-01T12:02:30.333Z,99.90
2022-10-01T12:05:02.929Z,99.90
2022-10-01T12:07:42.492Z,99.90
2022-10-01T12:10:21.633Z,99.90
2022-10-01T12:13:08.568Z,99.90
2022-10-01T12:16:01.771Z,99.90
2022-10-01T12:18:37.421Z,99.90
2022-10-01T12:21:08.441Z,99.90
2022-10-01T12:24:00.172Z,99.90
2022-10-01T12:26:34.674Z,99.90
2022-10-01T12:29:17.959Z,99.90
2022-10-01T12:31:51.967Z,99.90
2022-10-01T12:34:44.534Z,99.90
2022-10-01T12:37:24.457Z,99.90
2022-10-01T12:40:26.404Z,99.90
2022-10-01T12:43:20.508Z,99.90
2022-10-01T12:46:04.037Z,99.90
2022-10-01T12:48:39.475Z,99.90
2022-10-01T12:51:30.192Z,99.90
2022-10-01T12:54:13.391Z,99.90
2022-10-01T12:56:52.399Z,99.90
2022-10-01T12:59:25.152Z,99.90
2022-10-01T13:02:02.019Z,99.90
2022-10-01T13:04:57.511Z,99.90
2022-10-01T13:07:46.813Z,99.90
2022-10-01T13:10:42.332Z,99.90
2022-10-01T13:13:17.739Z,99.90
2022-10-01T13:15:47.705Z,99.90
2022-10-01T13:18:50.486Z,99.90
2022-10-01T13:22:10.672Z,99.90
2022-10-01T13:24:50.521Z,99.90
2022-10-01T13:27:30.687Z,99.90
2022-10-01T13:30:18.754Z,99.80
2022-10-01T13:33:05.158Z,99.90
2022-10-01T13:35:36.493Z,99.60
2022-10-01T13:38:28.882Z,99.30
2022-10-01T13:41:01.678Z,99.00
2022-10-01T13:43:30.452Z,99.00
2022-10-01T13:46:06.457Z,97.90
2022-10-01T13:48:35.256Z,97.50
2022-10-01T13:51:11.577Z,98.00
2022-10-01T13:53:40.883Z,96.40
2022-10-01T13:56:09.743Z,96.50
2022-10-01T13:58:38.582Z,96.00
2022-10-01T14:01:19.966Z,95.50
2022-10-01T14:04:21.652Z,94.20
2022-10-01T14:07:02.812Z,94.50
2022-10-01T14:09:34.768Z,93.30
2022-10-01T14:12:35.411Z,93.80
2022-10-01T14:15:34.789Z,94.90
2022-10-01T14:18:37.801Z,95.10
2022-10-01T14:21:18.659Z,94.80
2022-10-01T14:24:14.405Z,94.40
2022-10-01T14:27:17.516Z,94.10
2022-10-01T14:30:12.717Z,94.10
2022-10-01T14:32:58.609Z,93.30
2022-10-01T14:35:39.444Z,92.70
2022-10-01T14:38:19.597Z,92.20
2022-10-01T14:40:48.486Z,92.40
2022-10-01T14:43:21.045Z,92.20
2022-10-01T14:46:05.911Z,91.10
2022-10-01T14:48:34.531Z,91.90
2022-10-01T14:51:07.218Z,91.40
2022-10-01T14:53:36.110Z,90.80
2022-10-01T14:56:12.009Z,91.00
2022-10-01T14:58:45.216Z,91.30
2022-10-01T15:01:21.247Z,92.20
2022-10-01T15:03:49.394Z,91.10
2022-10-01T15:06:22.662Z,91.00
2022-10-01T15:08:51.645Z,92.20
2022-10-01T15:11:30.210Z,92.80
2022-10-01T15:14:02.890Z,90.80
2022-10-01T15:16:30.188Z,91.70
2022-10-01T15:19:28.244Z,91.80
2022-10-01T15:22:00.516Z,91.50
2022-10-01T15:24:44.159Z,91.30
2022-10-01T15:27:13.576Z,91.00
2022-10-01T15:29:43.535Z,91.50
2022-10-01T15:32:16.461Z,91.70
2022-10-01T15:34:49.419Z,91.50
2022-10-01T15:37:33.212Z,93.60
2022-10-01T15:40:01.265Z,97.50
2022-10-01T15:42:31.440Z,99.00
2022-10-01T15:45:25.669Z,99.10
2022-10-01T15:47:56.751Z,99.90
2022-10-01T15:50:36.480Z,99.90
2022-10-01T15:53:09.927Z,99.90
2022-10-01T15:55:49.971Z,99.90
2022-10-01T15:58:21.219Z,99.90
2022-10-01T16:00:48.510Z,99.90
2022-10-01T16:03:23.196Z,99.90
2022-10-01T16:05:51.048Z,99.90
2022-10-01T16:08:21.639Z,99.90
2022-10-01T16:11:12.426Z,99.90
2022-10-01T16:13:41.218Z,99.90
2022-10-01T16:16:13.022Z,99.90
2022-10-01T16:18:40.787Z,99.90
2022-10-01T16:21:10.007Z,99.90
2022-10-01T16:23:42.186Z,99.90
2022-10-01T16:26:27.284Z,99.90
2022-10-01T16:29:03.565Z,99.80
2022-10-01T16:31:31.147Z,99.90
2022-10-01T16:33:58.024Z,99.80
2022-10-01T16:36:26.179Z,99.00
2022-10-01T16:38:53.285Z,98.30
2022-10-01T16:41:26.015Z,96.80
2022-10-01T16:43:55.792Z,97.70
2022-10-01T16:46:22.421Z,97.10
2022-10-01T16:48:51.490Z,96.00
2022-10-01T16:51:19.178Z,96.40
2022-10-01T16:53:46.871Z,96.70
2022-10-01T16:56:14.110Z,96.40
2022-10-01T16:58:42.968Z,95.20
2022-10-01T17:01:12.963Z,95.20
2022-10-01T17:03:40.189Z,95.30
2022-10-01T17:06:06.914Z,95.60
2022-10-01T17:08:33.471Z,95.20
2022-10-01T17:11:01.690Z,97.20
2022-10-01T17:13:32.537Z,94.90
2022-10-01T17:15:59.983Z,95.30
2022-10-01T17:18:26.689Z,95.20
2022-10-01T17:20:53.325Z,96.40
2022-10-01T17:23:22.238Z,95.40
2022-10-01T17:25:49.399Z,96.00
2022-10-01T17:28:19.855Z,95.80
2022-10-01T17:30:48.362Z,95.40
2022-10-01T17:33:18.617Z,96.00
2022-10-01T17:35:51.325Z,95.50
2022-10-01T17:38:19.088Z,95.90
2022-10-01T17:40:45.960Z,95.90
2022-10-01T17:43:14.430Z,96.50
2022-10-01T17:45:41.430Z,96.70
2022-10-01T17:48:09.076Z,96.70
2022-10-01T17:50:43.485Z,96.20
2022-10-01T17:53:14.804Z,96.30
2022-10-01T17:55:43.123Z,96.30
2022-10-01T17:58:09.864Z,96.10
2022-10-01T18:00:36.621Z,96.00
2022-10-01T18:03:03.734Z,96.40
2022-10-01T18:05:30.697Z,95.90
2022-10-01T18:07:57.332Z,96.00
2022-10-01T18:10:23.923Z,97.20
2022-10-01T18:12:50.511Z,96.90
2022-10-01T18:15:20.174Z,96.00
2022-10-01T18:17:51.854Z,96.20
2022-10-01T18:20:20.661Z,96.00
2022-10-01T18:22:47.759Z,95.80
2022-10-01T18:25:15.941Z,96.40
2022-10-01T18:27:43.452Z,96.50
2022-10-01T18:30:10.607Z,96.70
2022-10-01T18:32:44.676Z,96.90
2022-10-01T18:35:33.367Z,96.80
2022-10-01T18:38:06.762Z,97.00
2022-10-01T18:40:39.863Z,96.90
2022-10-01T18:43:08.673Z,96.90
2022-10-01T18:46:03.587Z,97.40
2022-10-01T18:49:03.894Z,97.10
2022-10-01T18:51:51.929Z,97.70
2022-10-01T18:54:41.728Z,97.60
2022-10-01T18:57:20.712Z,97.80
2022-10-01T19:00:09.627Z,97.80
2022-10-01T19:03:16.802Z,98.20
2022-10-01T19:06:03.914Z,98.10
2022-10-01T19:08:58.345Z,98.90
2022-10-01T19:11:37.966Z,98.70
2022-10-01T19:14:20.947Z,99.10
2022-10-01T19:17:15.497Z,99.70
2022-10-01T19:19:52.527Z,99.60
2022-10-01T19:23:06.808Z,99.90
2022-10-01T19:25:46.308Z,99.90
2022-10-01T19:28:36.813Z,99.90
2022-10-01T19:31:44.518Z,99.90
2022-10-01T19:34:35.533Z,99.90
2022-10-01T19:37:25.667Z,99.90
2022-10-01T19:40:02.581Z,99.90
2022-10-01T19:42:38.065Z,99.90
2022-10-01T19:45:21.093Z,99.90
2022-10-01T19:47:56.841Z,99.90
2022-10-01T19:50:32.760Z,99.90
2022-10-01T19:53:02.441Z,99.90
2022-10-01T19:55:38.402Z,99.90
2022-10-01T19:58:18.772Z,99.90
2022-10-01T20:00:53.950Z,99.90
2022-10-01T20:03:27.985Z,99.90
2022-10-01T20:05:59.076Z,99.90
2022-10-01T20:08:46.923Z,99.90
2022-10-01T20:11:31.532Z,99.90
2022-10-01T20:14:42.587Z,99.90
2022-10-01T20:17:22.629Z,99.90
2022-10-01T20:20:00.621Z,99.90
2022-10-01T20:22:54.280Z,99.90
2022-10-01T20:25:40.828Z,99.90
2022-10-01T20:28:16.346Z,99.90
2022-10-01T20:31:10.288Z,99.90
2022-10-01T20:34:08.057Z,99.90
2022-10-01T20:36:48.631Z,99.90
2022-10-01T20:39:39.579Z,99.90
2022-10-01T20:42:10.072Z,99.90
2022-10-01T20:44:38.923Z,99.90
2022-10-01T20:47:18.944Z,99.90
2022-10-01T20:50:09.442Z,99.90
2022-10-01T20:52:56.643Z,99.90
2022-10-01T20:55:29.141Z,99.90
2022-10-01T20:58:03.301Z,99.90
2022-10-01T21:00:31.034Z,99.90
2022-10-01T21:03:11.707Z,99.90
2022-10-01T21:05:50.702Z,99.90
2022-10-01T21:08:46.569Z,99.90
2022-10-01T21:11:24.597Z,99.90
2022-10-01T21:13:53.900Z,99.90
2022-10-01T21:16:38.396Z,99.90
2022-10-01T21:19:30.172Z,99.90
2022-10-01T21:22:20.890Z,99.90
2022-10-01T21:25:00.070Z,99.90
2022-10-01T21:28:03.870Z,99.90
2022-10-01T21:30:41.455Z,99.90
2022-10-01T21:33:15.023Z,99.90
2022-10-01T21:35:56.553Z,99.90
2022-10-01T21:38:41.844Z,99.90
2022-10-01T21:41:33.460Z,99.90
2022-10-01T21:44:11.819Z,99.90
2022-10-01T21:46:55.095Z,99.90
2022-10-01T21:49:45.621Z,99.90
2022-10-01T21:52:54.717Z,99.90
2022-10-01T21:55:46.417Z,99.90
2022-10-01T21:58:56.331Z,99.90
2022-10-01T22:01:48.793Z,99.90
2022-10-01T22:04:35.343Z,99.90
2022-10-01T22:07:16.723Z,99.90
2022-10-01T22:09:55.163Z,99.90
2022-10-01T22:12:24.008Z,99.90
2022-10-01T22:14:52.443Z,99.90
2022-10-01T22:17:24.214Z,99.90
2022-10-01T22:19:57.352Z,99.90
2022-10-01T22:22:53.425Z,99.90
2022-10-01T22:25:20.128Z,99.90
2022-10-01T22:28:01.784Z,99.90
2022-10-01T22:30:33.566Z,99.90
2022-10-01T22:33:15.480Z,99.90
2022-10-01T22:36:02.173Z,99.90
2022-10-01T22:38:40.458Z,99.90
2022-10-01T22:41:14.313Z,99.90
2022-10-01T22:43:42.893Z,99.90
2022-10-01T22:46:38.958Z,99.90
2022-10-01T22:49:24.673Z,99.90
2022-10-01T22:52:00.677Z,99.90
2022-10-01T22:55:05.186Z,99.90
2022-10-01T22:58:06.168Z,99.90
2022-10-01T23:00:42.973Z,99.90
2022-10-01T23:03:25.045Z,99.90
2022-10-01T23:06:11.238Z,99.90
2022-10-01T23:08:49.857Z,99.90
2022-10-01T23:11:42.273Z,99.90
2022-10-01T23:14:26.877Z,99.90
2022-10-01T23:17:11.876Z,99.90
2022-10-01T23:20:09.553Z,99.90
2022-10-01T23:23:00.653Z,99.90
2022-10-01T23:25:43.902Z,99.90
2022-10-01T23:28:29.408Z,99.90
2022-10-01T23:31:00.430Z,99.90
2022-10-01T23:33:41.857Z,99.90
2022-10-01T23:36:30.747Z,99.90
2022-10-01T23:39:33.483Z,99.90
2022-10-01T23:42:21.954Z,99.90
2022-10-01T23:45:12.584Z,99.90
2022-10-01T23:47:48.584Z,99.90
2022-10-01T23:50:23.702Z,99.90
2022-10-01T23:52:59.584Z,99.90
2022-10-01T23:56:10.745Z,99.90
2022-10-01T23:59:00.427Z,99.90
